sensor_id;sensor_type;location;lat;lon;timestamp;temperature;humidity
32147;DHT22;32190;49.112;8.598;2023-01-06T00:04:27;15.50;63.40
32147;DHT22;32190;49.112;8.598;2023-01-06T00:10:18;15.50;63.40
32147;DHT22;32190;49.112;8.598;2023-01-06T00:16:11;15.50;63.40
32147;DHT22;32190;49.112;8.598;2023-01-06T00:22:02;15.50;63.50
32147;DHT22;32190;49.112;8.598;2023-01-06T00:27:55;15.50;63.40
32147;DHT22;32190;49.112;8.598;2023-01-06T00:33:45;15.50;63.40
32147;DHT22;32190;49.112;8.598;2023-01-06T00:39:36;15.60;63.40
32147;DHT22;32190;49.112;8.598;2023-01-06T00:45:26;15.60;63.40
32147;DHT22;32190;49.112;8.598;2023-01-06T00:51:17;15.50;63.40
32147;DHT22;32190;49.112;8.598;2023-01-06T00:57:08;15.50;63.40
32147;DHT22;32190;49.112;8.598;2023-01-06T01:02:58;15.60;63.50
32147;DHT22;32190;49.112;8.598;2023-01-06T01:08:53;15.60;63.50
32147;DHT22;32190;49.112;8.598;2023-01-06T01:14:46;15.50;63.50
32147;DHT22;32190;49.112;8.598;2023-01-06T01:20:37;15.50;63.40
32147;DHT22;32190;49.112;8.598;2023-01-06T01:26:27;15.60;63.50
32147;DHT22;32190;49.112;8.598;2023-01-06T01:32:18;15.60;63.50
32147;DHT22;32190;49.112;8.598;2023-01-06T01:38:08;15.60;63.40
32147;DHT22;32190;49.112;8.598;2023-01-06T01:44:02;15.60;63.50
32147;DHT22;32190;49.112;8.598;2023-01-06T01:50:17;15.50;63.40
32147;DHT22;32190;49.112;8.598;2023-01-06T01:56:15;15.50;63.40
32147;DHT22;32190;49.112;8.598;2023-01-06T02:02:07;15.60;63.40
32147;DHT22;32190;49.112;8.598;2023-01-06T02:08:01;15.50;63.40
32147;DHT22;32190;49.112;8.598;2023-01-06T02:14:05;15.50;63.50
32147;DHT22;32190;49.112;8.598;2023-01-06T02:20:32;15.60;63.60
32147;DHT22;32190;49.112;8.598;2023-01-06T02:32:54;15.50;63.50
32147;DHT22;32190;49.112;8.598;2023-01-06T02:57:20;15.50;63.60
32147;DHT22;32190;49.112;8.598;2023-01-06T03:03:16;15.50;63.60
32147;DHT22;32190;49.112;8.598;2023-01-06T03:09:08;15.50;63.60
32147;DHT22;32190;49.112;8.598;2023-01-06T03:14:58;15.50;63.60
32147;DHT22;32190;49.112;8.598;2023-01-06T03:20:50;15.40;63.60
32147;DHT22;32190;49.112;8.598;2023-01-06T03:26:44;15.40;63.60
32147;DHT22;32190;49.112;8.598;2023-01-06T03:32:58;15.40;63.60
32147;DHT22;32190;49.112;8.598;2023-01-06T03:44:49;15.40;63.80
32147;DHT22;32190;49.112;8.598;2023-01-06T03:50:48;15.40;63.70
32147;DHT22;32190;49.112;8.598;2023-01-06T03:56:41;15.40;63.90
32147;DHT22;32190;49.112;8.598;2023-01-06T04:02:33;15.50;63.90
32147;DHT22;32190;49.112;8.598;2023-01-06T04:08:25;15.40;63.70
32147;DHT22;32190;49.112;8.598;2023-01-06T04:14:15;15.40;63.80
32147;DHT22;32190;49.112;8.598;2023-01-06T04:20:08;15.40;63.90
32147;DHT22;32190;49.112;8.598;2023-01-06T04:25:59;15.40;64.00
32147;DHT22;32190;49.112;8.598;2023-01-06T04:31:50;15.40;64.00
32147;DHT22;32190;49.112;8.598;2023-01-06T04:37:40;15.30;64.10
32147;DHT22;32190;49.112;8.598;2023-01-06T04:43:31;15.30;64.10
32147;DHT22;32190;49.112;8.598;2023-01-06T04:49:21;15.30;64.20
32147;DHT22;32190;49.112;8.598;2023-01-06T04:55:12;15.30;64.20
32147;DHT22;32190;49.112;8.598;2023-01-06T05:01:05;15.30;64.20
32147;DHT22;32190;49.112;8.598;2023-01-06T05:06:56;15.20;64.30
32147;DHT22;32190;49.112;8.598;2023-01-06T05:12:46;15.20;64.30
32147;DHT22;32190;49.112;8.598;2023-01-06T05:18:37;15.20;64.30
32147;DHT22;32190;49.112;8.598;2023-01-06T05:24:27;15.20;64.30
32147;DHT22;32190;49.112;8.598;2023-01-06T05:30:18;15.20;64.50
32147;DHT22;32190;49.112;8.598;2023-01-06T05:36:11;15.20;64.40
32147;DHT22;32190;49.112;8.598;2023-01-06T05:42:01;15.10;64.40
32147;DHT22;32190;49.112;8.598;2023-01-06T05:47:52;15.10;64.40
32147;DHT22;32190;49.112;8.598;2023-01-06T05:53:44;15.10;64.40
32147;DHT22;32190;49.112;8.598;2023-01-06T05:59:35;15.10;64.50
32147;DHT22;32190;49.112;8.598;2023-01-06T06:05:26;15.10;64.60
32147;DHT22;32190;49.112;8.598;2023-01-06T06:11:18;15.00;64.50
32147;DHT22;32190;49.112;8.598;2023-01-06T06:17:09;15.00;64.50
32147;DHT22;32190;49.112;8.598;2023-01-06T06:22:59;15.10;64.50
32147;DHT22;32190;49.112;8.598;2023-01-06T06:28:51;15.10;64.50
32147;DHT22;32190;49.112;8.598;2023-01-06T06:34:41;15.00;64.40
32147;DHT22;32190;49.112;8.598;2023-01-06T06:40:32;15.00;64.40
32147;DHT22;32190;49.112;8.598;2023-01-06T06:46:23;15.00;64.40
32147;DHT22;32190;49.112;8.598;2023-01-06T06:52:15;15.00;64.40
32147;DHT22;32190;49.112;8.598;2023-01-06T06:58:06;15.00;64.40
32147;DHT22;32190;49.112;8.598;2023-01-06T07:03:56;15.00;64.40
32147;DHT22;32190;49.112;8.598;2023-01-06T07:09:47;14.90;64.40
32147;DHT22;32190;49.112;8.598;2023-01-06T07:15:38;14.90;64.40
32147;DHT22;32190;49.112;8.598;2023-01-06T07:21:28;14.90;64.40
32147;DHT22;32190;49.112;8.598;2023-01-06T07:27:19;14.90;64.40
32147;DHT22;32190;49.112;8.598;2023-01-06T07:33:09;14.80;64.40
32147;DHT22;32190;49.112;8.598;2023-01-06T07:39:00;14.80;64.30
32147;DHT22;32190;49.112;8.598;2023-01-06T07:44:51;14.80;64.30
32147;DHT22;32190;49.112;8.598;2023-01-06T07:50:41;14.80;64.40
32147;DHT22;32190;49.112;8.598;2023-01-06T07:56:32;14.80;64.40
32147;DHT22;32190;49.112;8.598;2023-01-06T08:02:23;14.80;64.30
32147;DHT22;32190;49.112;8.598;2023-01-06T08:08:13;14.90;64.30
32147;DHT22;32190;49.112;8.598;2023-01-06T08:14:04;14.80;64.20
32147;DHT22;32190;49.112;8.598;2023-01-06T08:19:55;14.90;64.20
32147;DHT22;32190;49.112;8.598;2023-01-06T08:25:45;14.90;63.90
32147;DHT22;32190;49.112;8.598;2023-01-06T08:31:36;14.90;63.80
32147;DHT22;32190;49.112;8.598;2023-01-06T08:37:26;14.90;63.70
32147;DHT22;32190;49.112;8.598;2023-01-06T08:43:17;14.90;63.50
32147;DHT22;32190;49.112;8.598;2023-01-06T08:49:07;14.90;63.30
32147;DHT22;32190;49.112;8.598;2023-01-06T08:54:58;14.90;63.00
32147;DHT22;32190;49.112;8.598;2023-01-06T09:00:49;15.00;63.10
32147;DHT22;32190;49.112;8.598;2023-01-06T09:06:41;14.90;62.90
32147;DHT22;32190;49.112;8.598;2023-01-06T09:12:33;15.00;62.50
32147;DHT22;32190;49.112;8.598;2023-01-06T09:18:23;15.00;62.80
32147;DHT22;32190;49.112;8.598;2023-01-06T09:24:14;15.00;62.40
32147;DHT22;32190;49.112;8.598;2023-01-06T09:30:06;15.00;62.10
32147;DHT22;32190;49.112;8.598;2023-01-06T09:35:57;15.00;61.80
32147;DHT22;32190;49.112;8.598;2023-01-06T09:48:10;15.10;61.20
32147;DHT22;32190;49.112;8.598;2023-01-06T10:00:31;15.10;61.40
32147;DHT22;32190;49.112;8.598;2023-01-06T10:12:31;15.20;61.20
32147;DHT22;32190;49.112;8.598;2023-01-06T10:25:14;15.20;60.10
32147;DHT22;32190;49.112;8.598;2023-01-06T10:31:11;15.30;60.60
32147;DHT22;32190;49.112;8.598;2023-01-06T10:43:04;15.40;60.70
32147;DHT22;32190;49.112;8.598;2023-01-06T10:48:56;15.30;60.50
32147;DHT22;32190;49.112;8.598;2023-01-06T10:54:47;15.40;60.50
32147;DHT22;32190;49.112;8.598;2023-01-06T11:01:05;15.40;60.50
32147;DHT22;32190;49.112;8.598;2023-01-06T11:07:00;15.40;60.00
32147;DHT22;32190;49.112;8.598;2023-01-06T11:12:52;15.40;59.50
32147;DHT22;32190;49.112;8.598;2023-01-06T11:18:59;15.40;59.80
32147;DHT22;32190;49.112;8.598;2023-01-06T11:24:52;15.40;59.80
32147;DHT22;32190;49.112;8.598;2023-01-06T11:31:05;15.50;59.70
32147;DHT22;32190;49.112;8.598;2023-01-06T11:36:57;15.50;59.80
32147;DHT22;32190;49.112;8.598;2023-01-06T11:42:51;15.60;59.80
32147;DHT22;32190;49.112;8.598;2023-01-06T11:48:46;15.70;59.70
32147;DHT22;32190;49.112;8.598;2023-01-06T11:54:39;15.70;59.10
32147;DHT22;32190;49.112;8.598;2023-01-06T12:06:40;15.70;58.50
32147;DHT22;32190;49.112;8.598;2023-01-06T12:12:34;15.70;59.20
32147;DHT22;32190;49.112;8.598;2023-01-06T12:18:29;15.80;58.90
32147;DHT22;32190;49.112;8.598;2023-01-06T12:24:20;15.80;59.10
32147;DHT22;32190;49.112;8.598;2023-01-06T12:36:58;15.80;59.00
32147;DHT22;32190;49.112;8.598;2023-01-06T12:48:57;15.80;58.90
32147;DHT22;32190;49.112;8.598;2023-01-06T12:54:55;15.90;59.00
32147;DHT22;32190;49.112;8.598;2023-01-06T13:00:52;15.90;58.60
32147;DHT22;32190;49.112;8.598;2023-01-06T13:19:15;15.80;57.70
32147;DHT22;32190;49.112;8.598;2023-01-06T13:25:55;15.80;57.90
32147;DHT22;32190;49.112;8.598;2023-01-06T13:38:00;15.80;58.60
32147;DHT22;32190;49.112;8.598;2023-01-06T13:43:53;15.80;58.60
32147;DHT22;32190;49.112;8.598;2023-01-06T13:49:46;15.80;58.30
32147;DHT22;32190;49.112;8.598;2023-01-06T13:55:36;15.80;58.40
32147;DHT22;32190;49.112;8.598;2023-01-06T14:07:36;15.70;58.10
32147;DHT22;32190;49.112;8.598;2023-01-06T14:13:55;15.60;57.30
32147;DHT22;32190;49.112;8.598;2023-01-06T14:19:51;15.50;58.00
32147;DHT22;32190;49.112;8.598;2023-01-06T14:25:49;15.50;57.90
32147;DHT22;32190;49.112;8.598;2023-01-06T14:31:40;15.50;58.20
32147;DHT22;32190;49.112;8.598;2023-01-06T14:37:37;15.50;58.10
32147;DHT22;32190;49.112;8.598;2023-01-06T14:43:32;15.50;58.00
32147;DHT22;32190;49.112;8.598;2023-01-06T14:49:28;15.50;58.10
32147;DHT22;32190;49.112;8.598;2023-01-06T14:55:22;15.50;58.90
32147;DHT22;32190;49.112;8.598;2023-01-06T15:01:33;15.50;58.30
32147;DHT22;32190;49.112;8.598;2023-01-06T15:07:24;15.40;57.80
32147;DHT22;32190;49.112;8.598;2023-01-06T15:19:42;15.40;58.00
32147;DHT22;32190;49.112;8.598;2023-01-06T15:25:36;15.50;58.30
32147;DHT22;32190;49.112;8.598;2023-01-06T15:31:33;15.50;58.00
32147;DHT22;32190;49.112;8.598;2023-01-06T15:37:26;15.40;58.30
32147;DHT22;32190;49.112;8.598;2023-01-06T15:43:22;15.40;58.40
32147;DHT22;32190;49.112;8.598;2023-01-06T15:49:34;15.40;58.50
32147;DHT22;32190;49.112;8.598;2023-01-06T15:55:35;15.40;58.60
32147;DHT22;32190;49.112;8.598;2023-01-06T16:01:26;15.40;58.60
32147;DHT22;32190;49.112;8.598;2023-01-06T16:07:37;15.40;58.30
32147;DHT22;32190;49.112;8.598;2023-01-06T16:13:30;15.30;58.10
32147;DHT22;32190;49.112;8.598;2023-01-06T16:19:21;15.30;58.50
32147;DHT22;32190;49.112;8.598;2023-01-06T16:25:27;15.30;58.40
32147;DHT22;32190;49.112;8.598;2023-01-06T16:31:34;15.30;58.10
32147;DHT22;32190;49.112;8.598;2023-01-06T16:37:25;15.30;58.30
32147;DHT22;32190;49.112;8.598;2023-01-06T16:43:16;15.30;58.50
32147;DHT22;32190;49.112;8.598;2023-01-06T16:49:08;15.30;58.50
32147;DHT22;32190;49.112;8.598;2023-01-06T16:54:59;15.20;58.40
32147;DHT22;32190;49.112;8.598;2023-01-06T17:00:51;15.20;58.50
32147;DHT22;32190;49.112;8.598;2023-01-06T17:06:44;15.20;58.70
32147;DHT22;32190;49.112;8.598;2023-01-06T17:12:35;15.20;58.40
32147;DHT22;32190;49.112;8.598;2023-01-06T17:18:52;15.10;58.60
32147;DHT22;32190;49.112;8.598;2023-01-06T17:24:43;15.10;58.80
32147;DHT22;32190;49.112;8.598;2023-01-06T17:30:34;15.10;58.70
32147;DHT22;32190;49.112;8.598;2023-01-06T17:36:31;15.10;58.90
32147;DHT22;32190;49.112;8.598;2023-01-06T17:42:31;15.10;58.80
32147;DHT22;32190;49.112;8.598;2023-01-06T17:48:23;15.00;58.40
32147;DHT22;32190;49.112;8.598;2023-01-06T17:54:24;15.10;58.60
32147;DHT22;32190;49.112;8.598;2023-01-06T18:00:34;15.00;58.70
32147;DHT22;32190;49.112;8.598;2023-01-06T18:06:31;15.10;58.80
32147;DHT22;32190;49.112;8.598;2023-01-06T18:12:27;15.00;58.80
32147;DHT22;32190;49.112;8.598;2023-01-06T18:18:38;15.00;58.70
32147;DHT22;32190;49.112;8.598;2023-01-06T18:24:35;15.00;58.70
32147;DHT22;32190;49.112;8.598;2023-01-06T18:30:26;14.90;58.70
32147;DHT22;32190;49.112;8.598;2023-01-06T18:36:17;15.00;58.80
32147;DHT22;32190;49.112;8.598;2023-01-06T18:42:29;14.90;58.90
32147;DHT22;32190;49.112;8.598;2023-01-06T18:48:29;14.90;58.80
32147;DHT22;32190;49.112;8.598;2023-01-06T18:54:21;14.90;58.80
32147;DHT22;32190;49.112;8.598;2023-01-06T19:00:33;14.90;58.90
32147;DHT22;32190;49.112;8.598;2023-01-06T19:06:33;14.80;58.60
32147;DHT22;32190;49.112;8.598;2023-01-06T19:12:32;14.80;58.60
32147;DHT22;32190;49.112;8.598;2023-01-06T19:18:27;14.80;58.90
32147;DHT22;32190;49.112;8.598;2023-01-06T19:30:33;14.80;58.80
32147;DHT22;32190;49.112;8.598;2023-01-06T19:36:44;14.70;58.80
32147;DHT22;32190;49.112;8.598;2023-01-06T19:42:37;14.70;58.90
32147;DHT22;32190;49.112;8.598;2023-01-06T19:48:37;14.70;59.00
32147;DHT22;32190;49.112;8.598;2023-01-06T19:54:33;14.70;58.80
32147;DHT22;32190;49.112;8.598;2023-01-06T20:00:27;14.70;58.80
32147;DHT22;32190;49.112;8.598;2023-01-06T20:06:18;14.70;59.00
32147;DHT22;32190;49.112;8.598;2023-01-06T20:12:08;14.60;58.90
32147;DHT22;32190;49.112;8.598;2023-01-06T20:18:00;14.60;59.20
32147;DHT22;32190;49.112;8.598;2023-01-06T20:23:51;14.60;59.30
32147;DHT22;32190;49.112;8.598;2023-01-06T20:29:41;14.50;59.10
32147;DHT22;32190;49.112;8.598;2023-01-06T20:35:32;14.50;59.10
32147;DHT22;32190;49.112;8.598;2023-01-06T20:41:22;14.50;59.10
32147;DHT22;32190;49.112;8.598;2023-01-06T20:47:13;14.40;59.10
32147;DHT22;32190;49.112;8.598;2023-01-06T20:53:04;14.40;59.10
32147;DHT22;32190;49.112;8.598;2023-01-06T20:58:54;14.40;59.30
32147;DHT22;32190;49.112;8.598;2023-01-06T21:04:45;14.40;59.10
32147;DHT22;32190;49.112;8.598;2023-01-06T21:10:35;14.40;59.30
32147;DHT22;32190;49.112;8.598;2023-01-06T21:16:26;14.40;59.20
32147;DHT22;32190;49.112;8.598;2023-01-06T21:22:17;14.40;59.20
32147;DHT22;32190;49.112;8.598;2023-01-06T21:28:08;14.40;59.30
32147;DHT22;32190;49.112;8.598;2023-01-06T21:33:58;14.50;59.40
32147;DHT22;32190;49.112;8.598;2023-01-06T21:39:48;14.50;59.40
32147;DHT22;32190;49.112;8.598;2023-01-06T21:45:43;14.50;60.10
32147;DHT22;32190;49.112;8.598;2023-01-06T21:51:34;14.50;59.20
32147;DHT22;32190;49.112;8.598;2023-01-06T21:57:25;14.50;59.10
32147;DHT22;32190;49.112;8.598;2023-01-06T22:03:16;14.50;59.20
32147;DHT22;32190;49.112;8.598;2023-01-06T22:09:08;14.50;59.10
32147;DHT22;32190;49.112;8.598;2023-01-06T22:15:00;14.50;58.90
32147;DHT22;32190;49.112;8.598;2023-01-06T22:20:50;14.50;59.00
32147;DHT22;32190;49.112;8.598;2023-01-06T22:26:41;14.50;59.10
32147;DHT22;32190;49.112;8.598;2023-01-06T22:32:41;14.50;59.10
32147;DHT22;32190;49.112;8.598;2023-01-06T22:38:31;14.50;58.80
32147;DHT22;32190;49.112;8.598;2023-01-06T22:44:22;14.50;58.90
32147;DHT22;32190;49.112;8.598;2023-01-06T22:50:12;14.40;58.90
32147;DHT22;32190;49.112;8.598;2023-01-06T22:56:05;14.50;59.00
32147;DHT22;32190;49.112;8.598;2023-01-06T23:01:56;14.40;59.00
32147;DHT22;32190;49.112;8.598;2023-01-06T23:07:47;14.40;59.00
32147;DHT22;32190;49.112;8.598;2023-01-06T23:13:38;14.40;59.10
32147;DHT22;32190;49.112;8.598;2023-01-06T23:19:29;14.40;59.20
32147;DHT22;32190;49.112;8.598;2023-01-06T23:25:19;14.40;59.20
32147;DHT22;32190;49.112;8.598;2023-01-06T23:31:13;14.40;59.20
32147;DHT22;32190;49.112;8.598;2023-01-06T23:37:04;14.40;59.30
32147;DHT22;32190;49.112;8.598;2023-01-06T23:42:55;14.40;59.40
32147;DHT22;32190;49.112;8.598;2023-01-06T23:48:46;14.40;59.50
32147;DHT22;32190;49.112;8.598;2023-01-06T23:54:37;14.40;59.50
